createdAt,value
2023-01-09T00:00:52.925Z,95523.91
2023-01-09T00:03:19.377Z,95513.88
2023-01-09T00:05:45.911Z,95518.22
2023-01-09T00:08:12.382Z,95501.72
2023-01-09T00:10:38.841Z,95503.16
2023-01-09T00:13:05.321Z,95517.00
2023-01-09T00:15:31.827Z,95509.13
2023-01-09T00:17:58.294Z,95511.03
2023-01-09T00:20:24.783Z,95509.28
2023-01-09T00:22:51.264Z,95507.50
2023-01-09T00:25:17.770Z,95394.66
2023-01-09T00:27:44.252Z,95494.50
2023-01-09T00:30:11.070Z,95513.47
2023-01-09T00:32:37.529Z,95508.31
2023-01-09T00:35:04.135Z,95508.31
2023-01-09T00:37:30.612Z,95507.72
2023-01-09T00:39:57.093Z,95510.44
2023-01-09T00:42:24.281Z,95515.81
2023-01-09T00:45:00.953Z,95511.41
2023-01-09T00:47:28.654Z,95503.00
2023-01-09T00:49:55.515Z,95502.19
2023-01-09T00:52:22.009Z,95502.72
2023-01-09T00:54:48.690Z,95497.22
2023-01-09T00:57:15.267Z,95505.88
2023-01-09T00:59:41.794Z,95503.91
2023-01-09T01:02:08.754Z,95514.03
2023-01-09T01:04:54.069Z,95522.72
2023-01-09T01:07:38.798Z,95514.69
2023-01-09T01:10:06.028Z,95516.75
2023-01-09T01:16:00.834Z,95512.06
2023-01-09T01:18:27.288Z,95523.63
2023-01-09T01:20:53.774Z,95522.34
2023-01-09T01:23:20.250Z,95519.44
2023-01-09T01:25:46.926Z,95508.84
2023-01-09T01:28:13.425Z,95499.19
2023-01-09T01:30:40.321Z,95492.63
2023-01-09T01:33:06.881Z,95481.28
2023-01-09T01:35:33.385Z,95468.19
2023-01-09T01:37:59.934Z,95467.56
2023-01-09T01:40:26.451Z,95449.59
2023-01-09T01:42:53.420Z,95451.22
2023-01-09T01:45:20.609Z,95448.50
2023-01-09T01:47:50.319Z,95430.97
2023-01-09T01:50:16.783Z,95429.72
2023-01-09T01:52:44.520Z,95422.63
2023-01-09T01:55:11.038Z,95413.63
2023-01-09T01:57:38.026Z,95411.69
2023-01-09T02:00:04.817Z,95408.81
2023-01-09T02:02:31.724Z,95408.97
2023-01-09T02:04:58.754Z,95400.44
2023-01-09T02:07:25.248Z,95393.84
2023-01-09T02:09:51.932Z,95397.75
2023-01-09T02:12:25.032Z,95397.09
2023-01-09T02:14:54.790Z,95400.47
2023-01-09T02:17:21.251Z,95396.47
2023-01-09T02:23:19.076Z,95356.66
2023-01-09T02:25:55.447Z,95360.19
2023-01-09T02:28:25.063Z,95360.19
2023-01-09T02:30:54.578Z,95360.69
2023-01-09T02:33:33.840Z,95357.81
2023-01-09T02:36:17.194Z,95353.28
2023-01-09T02:38:52.745Z,95351.19
2023-01-09T02:41:24.456Z,95346.50
2023-01-09T02:44:09.571Z,95336.66
2023-01-09T02:46:36.018Z,95330.69
2023-01-09T02:49:02.470Z,95321.97
2023-01-09T02:51:35.005Z,95317.94
2023-01-09T02:54:07.209Z,95302.78
2023-01-09T02:56:42.733Z,95297.13
2023-01-09T02:59:13.055Z,95300.34
2023-01-09T03:01:52.448Z,95288.22
2023-01-09T03:04:28.311Z,95289.66
2023-01-09T03:07:24.137Z,95285.97
2023-01-09T03:09:50.748Z,95296.91
2023-01-09T03:12:18.409Z,95276.56
2023-01-09T03:14:46.281Z,95278.47
2023-01-09T03:17:13.338Z,95271.38
2023-01-09T03:19:39.812Z,95265.19
2023-01-09T03:22:06.458Z,95265.19
2023-01-09T03:24:33.330Z,95260.84
2023-01-09T03:26:59.835Z,95245.78
2023-01-09T03:29:27.458Z,95237.72
2023-01-09T03:31:55.352Z,95238.03
2023-01-09T03:34:21.832Z,95236.53
2023-01-09T03:36:48.323Z,95218.22
2023-01-09T03:39:14.778Z,95213.25
2023-01-09T03:41:41.267Z,95202.09
2023-01-09T03:44:07.734Z,95211.75
2023-01-09T03:46:34.210Z,95199.00
2023-01-09T03:49:00.701Z,95180.63
2023-01-09T03:51:27.185Z,95168.19
2023-01-09T03:53:53.731Z,95169.31
2023-01-09T03:56:20.298Z,95170.13
2023-01-09T03:58:46.817Z,95166.13
2023-01-09T04:01:29.753Z,95180.16
2023-01-09T04:03:56.315Z,95181.94
2023-01-09T04:06:22.884Z,95160.44
2023-01-09T04:08:49.373Z,95164.72
2023-01-09T04:11:18.138Z,95170.22
2023-01-09T04:13:45.222Z,95156.06
2023-01-09T04:16:11.748Z,95164.44
2023-01-09T04:18:38.335Z,95153.22
2023-01-09T04:21:04.805Z,95160.00
2023-01-09T04:23:31.329Z,95158.38
2023-01-09T04:25:57.810Z,95161.84
2023-01-09T04:28:24.328Z,95165.41
2023-01-09T04:30:50.760Z,95162.53
2023-01-09T04:33:17.248Z,95146.25
2023-01-09T04:35:43.692Z,95167.19
2023-01-09T04:38:10.207Z,95171.91
2023-01-09T04:40:36.687Z,95181.44
2023-01-09T04:43:03.149Z,95167.72
2023-01-09T04:45:29.691Z,95173.69
2023-01-09T04:47:56.175Z,95167.25
2023-01-09T04:50:22.753Z,95175.00
2023-01-09T04:52:49.272Z,95171.16
2023-01-09T04:55:15.814Z,95161.34
2023-01-09T04:57:42.266Z,95173.28
2023-01-09T05:00:10.004Z,95170.22
2023-01-09T05:02:36.934Z,95174.06
2023-01-09T05:05:03.501Z,95168.44
2023-01-09T05:07:29.950Z,95173.28
2023-01-09T05:09:56.451Z,95167.13
2023-01-09T05:12:22.908Z,95158.75
2023-01-09T05:14:49.375Z,95151.16
2023-01-09T05:17:15.852Z,95160.69
2023-01-09T05:19:42.586Z,95149.03
2023-01-09T05:22:09.086Z,95151.00
2023-01-09T05:24:35.532Z,95162.66
2023-01-09T05:27:02.839Z,95175.28
2023-01-09T05:29:29.370Z,95167.72
2023-01-09T05:31:55.894Z,95166.44
2023-01-09T05:34:22.432Z,95157.63
2023-01-09T05:36:48.893Z,95189.78
2023-01-09T05:39:15.478Z,95172.31
2023-01-09T05:41:41.918Z,95180.41
2023-01-09T05:44:08.381Z,95193.66
2023-01-09T05:46:34.909Z,95178.06
2023-01-09T05:49:01.344Z,95167.25
2023-01-09T05:51:27.855Z,95189.25
2023-01-09T05:53:54.319Z,95175.38
2023-01-09T05:56:20.757Z,95166.31
2023-01-09T05:58:47.218Z,95176.69
2023-01-09T06:01:13.703Z,95163.66
2023-01-09T06:03:40.365Z,95174.19
2023-01-09T06:06:07.014Z,95165.84
2023-01-09T06:08:33.526Z,95169.03
2023-01-09T06:10:59.959Z,95173.88
2023-01-09T06:13:26.645Z,95168.72
2023-01-09T06:15:53.109Z,95178.75
2023-01-09T06:18:19.542Z,95152.00
2023-01-09T06:20:46.350Z,95160.19
2023-01-09T06:23:13.582Z,95162.28
2023-01-09T06:25:40.297Z,95162.97
2023-01-09T06:28:06.889Z,95154.91
2023-01-09T06:30:34.117Z,95165.91
2023-01-09T06:33:00.772Z,95167.19
2023-01-09T06:35:27.371Z,95161.69
2023-01-09T06:37:54.240Z,95171.69
2023-01-09T06:40:21.269Z,95164.91
2023-01-09T06:42:47.875Z,95172.97
2023-01-09T06:45:14.540Z,95171.06
2023-01-09T06:47:41.140Z,95174.88
2023-01-09T06:50:09.404Z,95184.59
2023-01-09T06:52:39.052Z,95171.38
2023-01-09T06:55:05.923Z,95182.69
2023-01-09T06:57:32.569Z,95187.53
2023-01-09T06:59:59.076Z,95184.97
2023-01-09T07:02:25.526Z,95189.16
2023-01-09T07:04:52.071Z,95191.72
2023-01-09T07:07:19.833Z,95188.34
2023-01-09T07:09:46.449Z,95175.44
2023-01-09T07:12:13.083Z,95168.50
2023-01-09T07:14:39.689Z,95180.44
2023-01-09T07:17:06.172Z,95176.44
2023-01-09T07:19:32.665Z,95166.44
2023-01-09T07:21:59.099Z,95164.31
2023-01-09T07:24:25.523Z,95171.19
2023-01-09T07:26:51.981Z,95163.31
2023-01-09T07:29:18.520Z,95150.22
2023-01-09T07:31:44.925Z,95149.72
2023-01-09T07:34:11.411Z,95155.88
2023-01-09T07:36:37.933Z,95149.38
2023-01-09T07:39:04.403Z,95153.28
2023-01-09T07:41:30.866Z,95150.06
2023-01-09T07:43:57.586Z,95143.22
2023-01-09T07:46:24.124Z,95144.69
2023-01-09T07:49:26.757Z,95137.72
2023-01-09T07:51:53.454Z,95136.75
2023-01-09T07:54:19.941Z,95135.63
2023-01-09T07:56:46.670Z,95118.34
2023-01-09T07:59:13.147Z,95133.38
2023-01-09T08:01:39.728Z,95135.94
2023-01-09T08:04:06.354Z,95133.47
2023-01-09T08:06:32.890Z,95146.91
2023-01-09T08:08:59.461Z,95153.00
2023-01-09T08:11:25.911Z,95138.47
2023-01-09T08:13:53.412Z,95144.44
2023-01-09T08:16:19.950Z,95141.97
2023-01-09T08:18:46.551Z,95146.97
2023-01-09T08:21:14.318Z,95146.16
2023-01-09T08:23:40.790Z,95142.41
2023-01-09T08:26:07.288Z,95143.59
2023-01-09T08:28:33.795Z,95150.53
2023-01-09T08:31:00.309Z,95156.03
2023-01-09T08:33:26.881Z,95165.72
2023-01-09T08:35:54.205Z,95144.09
2023-01-09T08:38:22.066Z,95167.34
2023-01-09T08:40:48.641Z,95150.56
2023-01-09T08:43:33.717Z,95161.38
2023-01-09T08:46:19.444Z,95158.97
2023-01-09T08:48:46.028Z,95164.94
2023-01-09T08:51:12.554Z,95167.81
2023-01-09T08:53:39.040Z,95158.91
2023-01-09T08:56:05.593Z,95171.47
2023-01-09T08:58:32.066Z,95168.34
2023-01-09T09:00:59.035Z,95179.84
2023-01-09T09:03:25.488Z,95189.66
2023-01-09T09:05:51.924Z,95177.38
2023-01-09T09:08:20.029Z,95181.91
2023-01-09T09:10:46.465Z,95182.22
2023-01-09T09:13:12.900Z,95182.53
2023-01-09T09:15:39.508Z,95179.47
2023-01-09T09:18:07.018Z,95178.34
2023-01-09T09:20:37.987Z,95177.56
2023-01-09T09:23:04.643Z,95185.59
2023-01-09T09:25:31.141Z,95174.56
2023-01-09T09:27:57.639Z,95184.03
2023-01-09T09:30:24.267Z,95170.63
2023-01-09T09:32:50.826Z,95159.28
2023-01-09T09:35:21.209Z,95188.31
2023-01-09T09:37:54.588Z,95168.00
2023-01-09T09:40:23.282Z,95185.28
2023-01-09T09:43:18.207Z,95181.53
2023-01-09T09:45:46.745Z,95170.22
2023-01-09T09:48:18.986Z,95172.81
2023-01-09T09:50:51.509Z,95155.88
2023-01-09T09:53:21.942Z,95159.59
2023-01-09T09:55:48.497Z,95153.03
2023-01-09T09:58:21.788Z,95166.91
2023-01-09T10:00:51.385Z,95176.88
2023-01-09T10:03:33.364Z,95157.72
2023-01-09T10:06:00.485Z,95163.63
2023-01-09T10:08:45.959Z,95168.00
2023-01-09T10:11:13.483Z,95161.25
2023-01-09T10:13:58.781Z,95174.50
2023-01-09T10:16:43.668Z,95154.91
2023-01-09T10:19:19.334Z,95155.28
2023-01-09T10:22:09.267Z,95169.50
2023-01-09T10:25:11.549Z,95166.44
2023-01-09T10:27:38.210Z,95169.41
2023-01-09T10:30:24.504Z,95165.88
2023-01-09T10:33:01.299Z,95168.94
2023-01-09T10:35:48.097Z,95170.72
2023-01-09T10:38:15.979Z,95173.91
2023-01-09T10:40:44.217Z,95189.13
2023-01-09T10:43:16.657Z,95171.91
2023-01-09T10:46:21.499Z,95183.75
2023-01-09T10:48:50.719Z,95183.84
2023-01-09T10:51:21.383Z,95182.06
2023-01-09T10:53:57.131Z,95186.63
2023-01-09T10:56:27.337Z,95190.47
2023-01-09T10:58:54.287Z,95180.13
2023-01-09T11:01:24.271Z,95183.81
2023-01-09T11:03:50.740Z,95195.56
2023-01-09T11:06:22.391Z,95194.28
2023-01-09T11:08:50.801Z,95194.13
2023-01-09T11:11:45.412Z,95193.06
2023-01-09T11:14:15.707Z,95190.66
2023-01-09T11:16:52.147Z,95179.84
2023-01-09T11:19:18.590Z,95183.75
2023-01-09T11:21:45.227Z,95189.13
2023-01-09T11:24:26.454Z,95185.34
2023-01-09T11:26:53.737Z,95180.53
2023-01-09T11:29:20.945Z,95181.13
2023-01-09T11:31:51.769Z,95173.13
2023-01-09T11:34:18.618Z,95179.44
2023-01-09T11:36:45.504Z,95173.13
2023-01-09T11:39:28.527Z,95178.94
2023-01-09T11:41:55.777Z,95182.72
2023-01-09T11:44:22.322Z,95189.00
2023-01-09T11:46:49.094Z,95191.59
2023-01-09T11:49:15.545Z,95195.63
2023-01-09T11:51:42.076Z,95189.00
2023-01-09T11:54:08.600Z,95189.19
2023-01-09T11:56:36.127Z,95188.72
2023-01-09T11:59:02.561Z,95185.88
2023-01-09T12:01:38.221Z,95178.28
2023-01-09T12:04:07.835Z,95180.72
2023-01-09T12:06:40.455Z,95175.06
2023-01-09T12:09:07.298Z,95172.03
2023-01-09T12:11:46.785Z,95171.59
2023-01-09T12:14:19.343Z,95177.56
2023-01-09T12:17:01.059Z,95173.66
2023-01-09T12:19:32.362Z,95153.94
2023-01-09T12:22:11.613Z,95162.56
2023-01-09T12:24:56.790Z,95157.09
2023-01-09T12:27:26.437Z,95164.06
2023-01-09T12:30:05.207Z,95162.75
2023-01-09T12:32:37.985Z,95167.22
2023-01-09T12:35:19.781Z,95174.97
2023-01-09T12:38:05.758Z,95194.47
2023-01-09T12:40:41.468Z,95192.06
2023-01-09T12:43:14.177Z,95204.09
2023-01-09T12:45:40.656Z,95203.78
2023-01-09T12:48:10.952Z,95205.66
2023-01-09T12:50:56.260Z,95216.19
2023-01-09T12:53:34.697Z,95222.28
2023-01-09T12:56:18.666Z,95219.72
2023-01-09T12:58:48.742Z,95203.41
2023-01-09T13:01:17.408Z,95202.63
2023-01-09T13:03:47.427Z,95208.94
2023-01-09T13:06:15.043Z,95209.56
2023-01-09T13:08:48.416Z,95210.06
2023-01-09T13:11:21.251Z,95215.09
2023-01-09T13:14:01.937Z,95215.72
2023-01-09T13:16:29.687Z,95215.09
2023-01-09T13:18:57.833Z,95206.97
2023-01-09T13:21:24.361Z,95215.41
2023-01-09T13:24:01.758Z,95231.25
2023-01-09T13:26:28.234Z,95239.63
2023-01-09T13:29:08.786Z,95243.19
2023-01-09T13:31:53.948Z,95250.47
2023-01-09T13:34:22.793Z,95250.34
2023-01-09T13:36:50.501Z,95254.88
2023-01-09T13:39:27.223Z,95260.38
2023-01-09T13:42:13.388Z,95265.88
2023-01-09T13:44:40.086Z,95267.31
2023-01-09T13:47:09.539Z,95275.22
2023-01-09T13:49:42.290Z,95267.66
2023-01-09T13:52:27.463Z,95265.69
2023-01-09T13:55:02.862Z,95271.50
2023-01-09T13:57:30.301Z,95266.50
2023-01-09T14:00:20.000Z,95268.78
2023-01-09T14:02:47.041Z,95268.16
2023-01-09T14:05:13.493Z,95276.88
2023-01-09T14:07:41.357Z,95278.00
2023-01-09T14:10:33.813Z,95279.81
2023-01-09T14:13:00.290Z,95290.94
2023-01-09T14:15:26.895Z,95284.97
2023-01-09T14:18:03.084Z,95295.31
2023-01-09T14:20:36.750Z,95297.75
2023-01-09T14:25:56.211Z,95296.94
2023-01-09T14:28:26.770Z,95295.97
2023-01-09T14:30:53.257Z,95303.56
2023-01-09T14:33:19.839Z,95298.72
2023-01-09T14:35:48.372Z,95304.69
2023-01-09T14:38:21.598Z,95301.44
2023-01-09T14:40:50.985Z,95304.03
2023-01-09T14:43:21.645Z,95317.41
2023-01-09T14:45:49.955Z,95312.28
2023-01-09T14:48:16.671Z,95318.09
2023-01-09T14:50:48.814Z,95323.59
2023-01-09T14:53:22.892Z,95310.72
2023-01-09T14:55:53.276Z,95311.84
2023-01-09T14:58:29.813Z,95311.88
2023-01-09T15:01:03.729Z,95317.84
2023-01-09T15:03:34.401Z,95171.44
2023-01-09T15:06:00.852Z,95316.88
2023-01-09T15:08:27.322Z,95317.84
2023-01-09T15:10:54.162Z,95329.91
2023-01-09T15:13:30.656Z,95320.56
2023-01-09T15:15:57.135Z,95331.22
2023-01-09T15:18:29.329Z,95335.41
2023-01-09T15:21:00.050Z,95335.72
2023-01-09T15:23:29.621Z,95341.50
2023-01-09T15:25:56.871Z,95341.84
2023-01-09T15:28:30.941Z,95338.31
2023-01-09T15:31:04.968Z,95344.91
2023-01-09T15:33:31.557Z,95351.00
2023-01-09T15:36:02.624Z,95355.50
2023-01-09T15:38:29.833Z,95352.31
2023-01-09T15:40:59.640Z,95356.16
2023-01-09T15:43:27.012Z,95354.53
2023-01-09T15:45:53.511Z,95356.31
2023-01-09T15:48:27.178Z,95360.84
2023-01-09T15:51:04.400Z,95360.03
2023-01-09T15:53:31.021Z,95365.66
2023-01-09T15:56:06.949Z,95365.50
2023-01-09T15:58:36.963Z,95367.13
2023-01-09T16:01:12.660Z,95356.81
2023-01-09T16:03:39.210Z,95354.88
2023-01-09T16:06:09.989Z,95363.28
2023-01-09T16:08:57.866Z,95360.53
2023-01-09T16:11:26.107Z,95374.84
2023-01-09T16:13:52.620Z,95373.88
2023-01-09T16:16:23.790Z,95365.84
2023-01-09T16:18:50.924Z,95359.41
2023-01-09T16:21:31.184Z,95359.25
2023-01-09T16:23:58.813Z,95362.63
2023-01-09T16:26:26.088Z,95370.34
2023-01-09T16:28:52.726Z,95368.59
2023-01-09T16:31:23.773Z,95371.31
2023-01-09T16:33:54.025Z,95372.94
2023-01-09T16:36:21.748Z,95380.16
2023-01-09T16:38:48.308Z,95373.41
2023-01-09T16:41:39.949Z,95370.38
2023-01-09T16:44:09.781Z,95377.59
2023-01-09T16:46:38.294Z,95378.88
2023-01-09T16:49:05.717Z,95376.47
2023-01-09T16:51:32.250Z,95385.78
2023-01-09T16:53:58.876Z,95386.75
2023-01-09T16:56:28.545Z,95392.72
2023-01-09T16:58:55.179Z,95391.91
2023-01-09T17:01:22.215Z,95390.31
2023-01-09T17:03:48.944Z,95392.88
2023-01-09T17:06:16.299Z,95390.78
2023-01-09T17:08:44.044Z,95389.34
2023-01-09T17:11:14.214Z,95390.66
2023-01-09T17:13:40.660Z,95398.03
2023-01-09T17:16:07.434Z,95402.69
2023-01-09T17:18:34.155Z,95402.06
2023-01-09T17:21:00.698Z,95399.47
2023-01-09T17:23:27.525Z,95403.81
2023-01-09T17:26:16.072Z,95395.28
2023-01-09T17:28:49.534Z,95396.09
2023-01-09T17:31:16.023Z,95399.94
2023-01-09T17:33:42.748Z,95398.69
2023-01-09T17:36:15.407Z,95398.19
2023-01-09T17:38:41.856Z,95410.59
2023-01-09T17:41:10.150Z,95402.19
2023-01-09T17:43:36.841Z,95400.75
2023-01-09T17:46:03.498Z,95398.47
2023-01-09T17:48:30.036Z,95397.31
2023-01-09T17:50:56.651Z,95402.13
2023-01-09T17:53:24.839Z,95398.75
2023-01-09T17:55:51.304Z,95405.53
2023-01-09T17:58:20.823Z,95401.03
2023-01-09T18:00:47.934Z,95406.81
2023-01-09T18:03:14.402Z,95403.16
2023-01-09T18:05:40.853Z,95404.91
2023-01-09T18:08:10.089Z,95409.41
2023-01-09T18:10:37.511Z,95411.00
2023-01-09T18:13:04.032Z,95409.41
2023-01-09T18:15:30.615Z,95411.34
2023-01-09T18:17:57.616Z,95413.09
2023-01-09T18:20:25.551Z,95407.97
2023-01-09T18:22:52.134Z,95418.91
2023-01-09T18:25:18.585Z,95411.00
2023-01-09T18:27:45.082Z,95414.25
2023-01-09T18:30:11.833Z,95415.84
2023-01-09T18:32:38.316Z,95415.06
2023-01-09T18:35:05.037Z,95414.88
2023-01-09T18:37:31.583Z,95408.78
2023-01-09T18:39:58.163Z,95404.41
2023-01-09T18:42:24.720Z,95409.28
2023-01-09T18:44:51.211Z,95409.28
2023-01-09T18:47:17.688Z,95415.22
2023-01-09T18:49:44.255Z,95416.84
2023-01-09T18:52:10.755Z,95416.84
2023-01-09T18:54:38.524Z,95416.84
2023-01-09T18:57:05.035Z,95415.72
2023-01-09T18:59:31.538Z,95405.56
2023-01-09T19:01:58.636Z,95408.13
2023-01-09T19:04:26.880Z,95421.69
2023-01-09T19:06:56.114Z,95413.16
2023-01-09T19:09:22.573Z,95412.19
2023-01-09T19:11:49.149Z,95417.34
2023-01-09T19:14:15.735Z,95407.03
2023-01-09T19:16:42.562Z,95414.75
2023-01-09T19:19:09.153Z,95413.00
2023-01-09T19:21:36.074Z,95411.38
2023-01-09T19:24:02.984Z,95414.75
2023-01-09T19:26:31.106Z,95418.78
2023-01-09T19:28:57.938Z,95416.53
2023-01-09T19:31:25.459Z,95418.44
2023-01-09T19:33:52.471Z,95421.19
2023-01-09T19:36:19.009Z,95414.25
2023-01-09T19:38:45.641Z,95417.63
2023-01-09T19:41:14.526Z,95415.06
2023-01-09T19:43:41.539Z,95419.59
2023-01-09T19:46:12.607Z,95426.34
2023-01-09T19:48:39.160Z,95422.16
2023-01-09T19:51:06.571Z,95421.19
2023-01-09T19:53:33.277Z,95426.50
2023-01-09T19:56:19.857Z,95431.94
2023-01-09T19:58:50.319Z,95432.91
2023-01-09T20:01:17.790Z,95441.63
2023-01-09T20:03:44.491Z,95440.81
2023-01-09T20:06:14.564Z,95432.28
2023-01-09T20:08:43.243Z,95447.56
2023-01-09T20:11:09.852Z,95444.84
2023-01-09T20:13:36.420Z,95455.31
2023-01-09T20:16:03.714Z,95452.09
2023-01-09T20:18:30.829Z,95459.47
2023-01-09T20:20:57.405Z,95456.28
2023-01-09T20:23:24.858Z,95452.88
2023-01-09T20:25:51.375Z,95461.59
2023-01-09T20:28:17.844Z,95465.09
2023-01-09T20:30:47.972Z,95467.03
2023-01-09T20:33:14.851Z,95456.88
2023-01-09T20:35:41.383Z,95466.22
2023-01-09T20:38:08.020Z,95460.28
2023-01-09T20:40:34.808Z,95453.00
2023-01-09T20:43:01.354Z,95462.16
2023-01-09T20:45:28.205Z,95458.13
2023-01-09T20:47:54.775Z,95460.66
2023-01-09T20:50:21.774Z,95461.13
2023-01-09T20:52:48.262Z,95457.25
2023-01-09T20:55:14.757Z,95453.19
2023-01-09T20:57:41.233Z,95459.28
2023-01-09T21:00:08.079Z,95462.00
2023-01-09T21:02:34.859Z,95461.22
2023-01-09T21:05:01.595Z,95464.59
2023-01-09T21:07:28.205Z,95464.44
2023-01-09T21:09:54.893Z,95458.63
2023-01-09T21:12:37.650Z,95456.06
2023-01-09T21:15:05.279Z,95462.31
2023-01-09T21:17:35.491Z,95463.25
2023-01-09T21:20:02.380Z,95474.88
2023-01-09T21:22:28.868Z,95474.72
2023-01-09T21:24:55.507Z,95482.75
2023-01-09T21:27:22.221Z,95469.72
2023-01-09T21:29:48.807Z,95476.00
2023-01-09T21:32:15.291Z,95485.72
2023-01-09T21:34:41.933Z,95501.44
2023-01-09T21:37:08.458Z,95499.81
2023-01-09T21:39:35.315Z,95504.75
2023-01-09T21:42:20.407Z,95509.94
2023-01-09T21:45:05.610Z,95518.00
2023-01-09T21:47:33.125Z,95518.47
2023-01-09T21:49:59.620Z,95461.81
2023-01-09T21:52:26.123Z,95521.81
2023-01-09T21:54:52.779Z,95527.22
2023-01-09T21:57:19.306Z,95520.94
2023-01-09T21:59:45.822Z,95531.19
2023-01-09T22:02:13.049Z,95523.91
2023-01-09T22:04:39.708Z,95530.03
2023-01-09T22:10:33.936Z,95539.94
2023-01-09T22:13:17.775Z,95536.22
2023-01-09T22:15:46.153Z,95542.84
2023-01-09T22:18:12.624Z,95545.25
2023-01-09T22:20:39.137Z,95536.72
2023-01-09T22:23:05.623Z,95547.19
2023-01-09T22:25:32.126Z,95540.41
2023-01-09T22:27:58.956Z,95540.69
2023-01-09T22:30:25.472Z,95539.22
2023-01-09T22:32:51.990Z,95546.94
2023-01-09T22:35:18.533Z,95542.84
2023-01-09T22:37:45.559Z,95546.13
2023-01-09T22:40:12.183Z,95542.75
2023-01-09T22:42:38.757Z,95535.41
2023-01-09T22:45:05.476Z,95549.44
2023-01-09T22:47:31.932Z,95544.09
2023-01-09T22:49:58.483Z,95538.31
2023-01-09T22:52:25.176Z,95553.06
2023-01-09T22:54:51.687Z,95550.47
2023-01-09T22:57:18.235Z,95540.34
2023-01-09T22:59:44.701Z,95537.63
2023-01-09T23:02:11.310Z,95544.84
2023-01-09T23:04:37.876Z,95543.22
2023-01-09T23:07:04.360Z,95545.28
2023-01-09T23:09:30.830Z,95548.50
2023-01-09T23:12:03.001Z,95545.13
2023-01-09T23:14:29.855Z,95549.44
2023-01-09T23:16:56.465Z,95554.31
2023-01-09T23:19:23.060Z,95553.78
2023-01-09T23:21:49.625Z,95557.75
2023-01-09T23:24:16.357Z,95559.94
2023-01-09T23:26:44.385Z,95556.28
2023-01-09T23:29:10.938Z,95561.19
2023-01-09T23:31:37.571Z,95556.34
2023-01-09T23:34:04.256Z,95557.97
2023-01-09T23:36:30.877Z,95562.28
2023-01-09T23:38:57.407Z,95561.50
2023-01-09T23:41:43.956Z,95571.34
2023-01-09T23:44:10.482Z,95573.38
2023-01-09T23:46:36.921Z,95570.16
2023-01-09T23:49:03.588Z,95570.00
2023-01-09T23:51:50.319Z,95565.53
2023-01-09T23:54:17.567Z,95572.88
2023-01-09T23:56:44.110Z,95585.66
2023-01-09T23:59:12.007Z,95583.81
